createdAt,value
2023-07-25T00:01:11.862Z,98626.63
2023-07-25T00:03:38.850Z,98631.84
2023-07-25T00:06:06.116Z,98611.41
2023-07-25T00:08:33.701Z,98622.88
2023-07-25T00:11:01.442Z,98605.72
2023-07-25T00:13:28.956Z,98615.00
2023-07-25T00:15:56.265Z,98621.25
2023-07-25T00:18:25.052Z,98608.56
2023-07-25T00:20:51.955Z,98623.66
2023-07-25T00:23:18.821Z,98615.38
2023-07-25T00:25:45.836Z,98631.94
2023-07-25T00:28:12.864Z,98642.72
2023-07-25T00:30:39.946Z,98651.78
2023-07-25T00:33:07.571Z,98632.38
2023-07-25T00:35:34.699Z,98617.78
2023-07-25T00:38:04.185Z,98640.25
2023-07-25T00:40:31.225Z,98635.81
2023-07-25T00:42:58.122Z,98633.56
2023-07-25T00:45:25.603Z,98629.44
2023-07-25T00:47:53.925Z,98644.63
2023-07-25T00:50:21.373Z,98635.06
2023-07-25T00:52:48.927Z,98646.56
2023-07-25T00:55:17.486Z,98629.22
2023-07-25T00:57:44.426Z,98629.84
2023-07-25T01:00:12.405Z,98623.31
2023-07-25T01:02:39.597Z,98645.91
2023-07-25T01:05:06.829Z,98638.09
2023-07-25T01:07:34.627Z,98656.16
2023-07-25T01:10:01.797Z,98648.69
2023-07-25T01:12:28.789Z,98676.97
2023-07-25T01:14:55.975Z,98669.88
2023-07-25T01:17:25.312Z,98676.25
2023-07-25T01:19:53.449Z,98674.75
2023-07-25T01:22:22.915Z,98695.41
2023-07-25T01:24:51.137Z,98676.06
2023-07-25T01:27:18.653Z,98675.00
2023-07-25T01:29:45.870Z,98686.25
2023-07-25T01:32:12.929Z,98665.81
2023-07-25T01:34:40.153Z,98684.72
2023-07-25T01:37:07.992Z,98700.72
2023-07-25T01:39:35.146Z,98680.00
2023-07-25T01:42:02.309Z,98686.19
2023-07-25T01:44:29.275Z,98686.06
2023-07-25T01:46:56.845Z,98704.63
2023-07-25T01:49:23.908Z,98706.38
2023-07-25T01:51:50.937Z,98706.47
2023-07-25T01:54:18.162Z,98715.84
2023-07-25T01:56:48.899Z,98708.06
2023-07-25T01:59:18.165Z,98715.16
2023-07-25T02:01:45.236Z,98713.34
2023-07-25T02:04:12.271Z,98749.53
2023-07-25T02:06:39.288Z,98729.28
2023-07-25T02:09:06.307Z,98718.09
2023-07-25T02:11:33.458Z,98733.94
2023-07-25T02:14:00.851Z,98735.66
2023-07-25T02:16:27.742Z,98718.41
2023-07-25T02:18:54.827Z,98714.25
2023-07-25T02:21:21.810Z,98698.78
2023-07-25T02:23:48.977Z,98718.03
2023-07-25T02:26:15.821Z,98712.28
2023-07-25T02:28:42.869Z,98686.19
2023-07-25T02:31:09.981Z,98728.78
2023-07-25T02:33:36.931Z,98719.06
2023-07-25T02:36:04.285Z,98703.69
2023-07-25T02:38:31.363Z,98721.44
2023-07-25T02:40:58.370Z,98695.94
2023-07-25T02:43:27.330Z,98689.22
2023-07-25T02:45:54.400Z,98741.84
2023-07-25T02:48:21.461Z,98707.19
2023-07-25T02:50:48.430Z,98706.75
2023-07-25T02:53:15.399Z,98690.59
2023-07-25T02:55:42.607Z,98679.47
2023-07-25T02:58:09.745Z,98684.00
2023-07-25T03:00:36.694Z,98670.53
2023-07-25T03:03:03.811Z,98648.59
2023-07-25T03:05:30.877Z,98653.94
2023-07-25T03:07:58.373Z,98653.16
2023-07-25T03:10:25.337Z,98673.25
2023-07-25T03:12:52.373Z,98644.19
2023-07-25T03:15:20.247Z,98655.44
2023-07-25T03:17:47.286Z,98630.53
2023-07-25T03:20:14.365Z,98659.47
2023-07-25T03:22:41.525Z,98650.56
2023-07-25T03:25:09.047Z,98652.34
2023-07-25T03:27:36.896Z,98659.38
2023-07-25T03:30:04.141Z,98652.44
2023-07-25T03:32:31.121Z,98677.22
2023-07-25T03:34:58.072Z,98673.72
2023-07-25T03:37:25.052Z,98650.75
2023-07-25T03:39:52.074Z,98641.53
2023-07-25T03:42:19.260Z,98656.78
2023-07-25T03:44:46.297Z,98657.19
2023-07-25T03:47:13.322Z,98649.44
2023-07-25T03:49:40.457Z,98658.94
2023-07-25T03:52:07.748Z,98649.84
2023-07-25T03:54:34.647Z,98665.00
2023-07-25T03:57:01.728Z,98648.19
2023-07-25T03:59:28.878Z,98667.28
2023-07-25T04:01:55.916Z,98659.56
2023-07-25T04:04:23.054Z,98641.97
2023-07-25T04:06:50.074Z,98651.09
2023-07-25T04:09:17.053Z,98660.72
2023-07-25T04:11:44.219Z,98648.63
2023-07-25T04:14:11.087Z,98636.97
2023-07-25T04:16:38.312Z,98649.84
2023-07-25T04:19:05.275Z,98653.53
2023-07-25T04:21:32.541Z,98655.25
2023-07-25T04:23:59.599Z,98656.63
2023-07-25T04:26:26.663Z,98639.16
2023-07-25T04:28:53.689Z,98652.16
2023-07-25T04:31:20.787Z,98644.84
2023-07-25T04:33:47.789Z,98661.69
2023-07-25T04:36:15.040Z,98633.72
2023-07-25T04:38:41.951Z,98645.44
2023-07-25T04:41:09.091Z,98649.72
2023-07-25T04:43:36.011Z,98633.66
2023-07-25T04:46:03.040Z,98633.34
2023-07-25T04:48:29.997Z,98617.75
2023-07-25T04:50:56.924Z,98626.84
2023-07-25T04:53:23.862Z,98606.09
2023-07-25T04:55:50.857Z,98596.72
2023-07-25T04:58:17.829Z,98620.06
2023-07-25T05:00:44.758Z,98614.88
2023-07-25T05:03:11.988Z,98621.28
2023-07-25T05:05:39.116Z,98626.25
2023-07-25T05:08:06.042Z,98625.91
2023-07-25T05:10:33.122Z,98634.88
2023-07-25T05:12:59.992Z,98640.75
2023-07-25T05:15:26.954Z,98616.38
2023-07-25T05:17:54.037Z,98608.53
2023-07-25T05:20:20.972Z,98615.59
2023-07-25T05:22:47.947Z,98627.38
2023-07-25T05:25:15.066Z,98618.69
2023-07-25T05:27:41.969Z,98626.31
2023-07-25T05:30:09.157Z,98616.97
2023-07-25T05:32:37.676Z,98619.34
2023-07-25T05:35:05.912Z,98622.84
2023-07-25T05:37:37.672Z,98639.09
2023-07-25T05:40:05.258Z,98610.78
2023-07-25T05:42:32.578Z,98615.56
2023-07-25T05:45:00.579Z,98619.44
2023-07-25T05:47:29.156Z,98591.09
2023-07-25T05:49:58.404Z,98611.72
2023-07-25T05:52:25.492Z,98608.50
2023-07-25T05:54:52.372Z,98612.63
2023-07-25T05:57:19.260Z,98609.72
2023-07-25T05:59:46.235Z,98623.03
2023-07-25T06:02:13.186Z,98604.69
2023-07-25T06:04:40.045Z,98632.63
2023-07-25T06:07:07.685Z,98572.06
2023-07-25T06:09:34.592Z,98619.09
2023-07-25T06:12:01.526Z,98634.22
2023-07-25T06:14:28.654Z,98622.41
2023-07-25T06:16:55.558Z,98634.56
2023-07-25T06:19:22.498Z,98608.16
2023-07-25T06:21:49.906Z,98619.69
2023-07-25T06:24:17.268Z,98610.50
2023-07-25T06:26:44.495Z,98616.53
2023-07-25T06:29:11.437Z,98636.03
2023-07-25T06:31:38.524Z,98639.91
2023-07-25T06:34:05.467Z,98610.25
2023-07-25T06:36:32.363Z,98623.34
2023-07-25T06:38:59.366Z,98617.88
2023-07-25T06:41:26.335Z,98628.56
2023-07-25T06:43:58.760Z,98626.97
2023-07-25T06:46:25.766Z,98622.94
2023-07-25T06:48:53.358Z,98600.19
2023-07-25T06:51:21.555Z,98630.53
2023-07-25T06:53:48.674Z,98625.53
2023-07-25T06:56:15.686Z,98623.25
2023-07-25T06:58:42.618Z,98632.38
2023-07-25T07:01:09.714Z,98640.44
2023-07-25T07:03:36.726Z,98610.50
2023-07-25T07:06:03.834Z,98609.81
2023-07-25T07:08:30.780Z,98614.22
2023-07-25T07:10:57.874Z,98586.53
2023-07-25T07:13:25.079Z,98606.78
2023-07-25T07:15:52.335Z,98619.25
2023-07-25T07:18:19.249Z,98625.03
2023-07-25T07:20:48.506Z,98620.50
2023-07-25T07:23:16.376Z,98628.84
2023-07-25T07:25:45.017Z,98634.06
2023-07-25T07:28:12.478Z,98649.53
2023-07-25T07:30:39.795Z,98643.63
2023-07-25T07:33:06.707Z,98655.34
2023-07-25T07:35:33.691Z,98642.75
2023-07-25T07:38:00.595Z,98627.31
2023-07-25T07:40:27.666Z,98637.41
2023-07-25T07:42:54.832Z,98631.88
2023-07-25T07:45:21.755Z,98632.81
2023-07-25T07:47:48.665Z,98651.41
2023-07-25T07:50:15.685Z,98640.38
2023-07-25T07:52:44.471Z,98630.31
2023-07-25T07:55:12.219Z,98642.84
2023-07-25T07:57:48.496Z,98630.59
2023-07-25T08:00:16.539Z,98627.63
2023-07-25T08:02:46.072Z,98657.16
2023-07-25T08:05:13.879Z,98619.72
2023-07-25T08:07:41.789Z,98632.06
2023-07-25T08:10:09.245Z,98604.94
2023-07-25T08:12:36.304Z,98641.88
2023-07-25T08:15:03.886Z,98616.75
2023-07-25T08:17:30.955Z,98638.03
2023-07-25T08:19:58.019Z,98626.13
2023-07-25T08:22:24.885Z,98623.59
2023-07-25T08:24:54.008Z,98619.66
2023-07-25T08:27:21.295Z,98647.00
2023-07-25T08:29:48.331Z,98617.75
2023-07-25T08:32:15.509Z,98626.31
2023-07-25T08:34:42.742Z,98633.09
2023-07-25T08:37:09.941Z,98595.56
2023-07-25T08:39:36.900Z,98600.81
2023-07-25T08:42:07.020Z,98604.03
2023-07-25T08:44:35.292Z,98603.78
2023-07-25T08:47:06.555Z,98577.41
2023-07-25T08:49:36.947Z,98603.78
2023-07-25T08:52:04.916Z,98629.47
2023-07-25T08:54:34.668Z,98581.09
2023-07-25T08:57:02.333Z,98591.25
2023-07-25T08:59:29.386Z,98595.13
2023-07-25T09:01:57.101Z,98630.84
2023-07-25T09:04:26.773Z,98609.69
2023-07-25T09:06:54.318Z,98602.00
2023-07-25T09:09:21.276Z,98575.69
2023-07-25T09:11:48.857Z,98576.69
2023-07-25T09:14:15.952Z,98577.16
2023-07-25T09:16:42.954Z,98559.59
2023-07-25T09:19:10.581Z,98584.16
2023-07-25T09:21:51.580Z,98575.03
2023-07-25T09:24:18.694Z,98602.09
2023-07-25T09:26:52.964Z,98567.75
2023-07-25T09:29:20.108Z,98584.28
2023-07-25T09:31:47.798Z,98581.53
2023-07-25T09:34:16.996Z,98555.56
2023-07-25T09:36:48.221Z,98561.19
2023-07-25T09:39:16.560Z,98569.53
2023-07-25T09:41:43.906Z,98562.34
2023-07-25T09:44:10.968Z,98563.91
2023-07-25T09:46:38.287Z,98554.41
2023-07-25T09:49:05.623Z,98565.94
2023-07-25T09:51:32.848Z,98549.47
2023-07-25T09:53:59.857Z,98581.09
2023-07-25T09:56:27.666Z,98550.28
2023-07-25T10:01:25.559Z,98566.09
2023-07-25T10:03:53.747Z,98545.06
2023-07-25T10:06:21.967Z,98550.00
2023-07-25T10:08:49.029Z,98541.75
2023-07-25T10:11:17.284Z,98546.84
2023-07-25T10:13:45.225Z,98554.38
2023-07-25T10:16:12.878Z,98551.66
2023-07-25T10:18:39.858Z,98552.00
2023-07-25T10:21:09.438Z,98552.84
2023-07-25T10:23:36.855Z,98553.81
2023-07-25T10:26:14.586Z,98534.88
2023-07-25T10:28:41.951Z,98541.31
2023-07-25T10:31:21.217Z,98546.81
2023-07-25T10:33:54.073Z,98543.84
2023-07-25T10:36:24.734Z,98546.72
2023-07-25T10:38:52.429Z,98541.63
2023-07-25T10:41:19.740Z,98542.56
2023-07-25T10:43:46.583Z,98572.75
2023-07-25T10:46:35.043Z,98556.00
2023-07-25T10:49:04.036Z,98464.25
2023-07-25T10:52:06.752Z,98547.84
2023-07-25T10:54:33.876Z,98553.56
2023-07-25T10:57:19.100Z,98541.34
2023-07-25T10:59:58.090Z,98582.19
2023-07-25T11:02:41.275Z,98543.50
2023-07-25T11:05:14.640Z,98539.44
2023-07-25T11:07:50.562Z,98545.78
2023-07-25T11:10:21.578Z,98554.13
2023-07-25T11:12:54.504Z,98536.88
2023-07-25T11:15:40.273Z,98546.00
2023-07-25T11:18:09.083Z,98479.97
2023-07-25T11:20:36.152Z,98549.56
2023-07-25T11:23:03.160Z,98549.66
2023-07-25T11:25:30.222Z,98531.72
2023-07-25T11:27:57.195Z,98544.88
2023-07-25T11:30:24.092Z,98549.53
2023-07-25T11:32:53.268Z,98528.22
2023-07-25T11:35:21.118Z,98510.63
2023-07-25T11:37:49.928Z,98520.81
2023-07-25T11:40:19.617Z,98511.63
2023-07-25T11:42:48.609Z,98500.41
2023-07-25T11:45:16.979Z,98515.84
2023-07-25T11:47:48.255Z,98512.56
2023-07-25T11:50:25.834Z,98491.16
2023-07-25T11:52:56.431Z,98502.97
2023-07-25T11:55:23.758Z,98508.56
2023-07-25T11:57:50.868Z,98515.25
2023-07-25T12:00:18.078Z,98511.16
2023-07-25T12:02:45.469Z,98521.66
2023-07-25T12:05:32.368Z,98518.28
2023-07-25T12:07:59.947Z,98505.28
2023-07-25T12:10:28.490Z,98506.28
2023-07-25T12:12:56.437Z,98495.06
2023-07-25T12:15:25.021Z,98508.75
2023-07-25T12:17:52.102Z,98468.91
2023-07-25T12:20:20.661Z,98502.84
2023-07-25T12:22:48.272Z,98508.38
2023-07-25T12:25:19.372Z,98504.09
2023-07-25T12:27:50.128Z,98487.59
2023-07-25T12:30:17.647Z,98506.81
2023-07-25T12:32:44.837Z,98497.50
2023-07-25T12:35:11.910Z,98482.41
2023-07-25T12:37:39.099Z,98494.41
2023-07-25T12:40:06.819Z,98499.38
2023-07-25T12:42:33.801Z,98495.84
2023-07-25T12:45:00.724Z,98519.69
2023-07-25T12:47:27.671Z,98493.75
2023-07-25T12:49:54.709Z,98494.63
2023-07-25T12:52:21.581Z,98519.03
2023-07-25T12:54:48.445Z,98496.38
2023-07-25T12:57:15.396Z,98500.75
2023-07-25T12:59:42.243Z,98494.28
2023-07-25T13:02:09.334Z,98492.28
2023-07-25T13:04:36.384Z,98481.78
2023-07-25T13:07:03.433Z,98503.00
2023-07-25T13:09:30.300Z,98512.69
2023-07-25T13:11:57.260Z,98503.59
2023-07-25T13:14:24.395Z,98503.59
2023-07-25T13:16:51.375Z,98456.16
2023-07-25T13:19:18.250Z,98498.06
2023-07-25T13:21:47.324Z,98492.88
2023-07-25T13:24:14.492Z,98482.75
2023-07-25T13:26:41.517Z,98490.63
2023-07-25T13:29:08.383Z,98478.31
2023-07-25T13:31:35.226Z,98463.78
2023-07-25T13:34:02.372Z,98424.03
2023-07-25T13:36:29.249Z,98462.78
2023-07-25T13:38:56.150Z,98464.78
2023-07-25T13:41:23.058Z,98472.38
2023-07-25T13:43:49.915Z,98469.66
2023-07-25T13:46:16.980Z,98484.69
2023-07-25T13:48:44.008Z,98485.13
2023-07-25T13:51:10.966Z,98467.84
2023-07-25T13:53:37.826Z,98471.78
2023-07-25T13:56:05.363Z,98489.94
2023-07-25T13:58:32.359Z,98486.38
2023-07-25T14:00:59.333Z,98488.97
2023-07-25T14:03:27.614Z,98458.94
2023-07-25T14:05:55.861Z,98477.84
2023-07-25T14:08:22.941Z,98478.38
2023-07-25T14:10:49.991Z,98484.41
2023-07-25T14:13:16.918Z,98471.81
2023-07-25T14:15:43.921Z,98490.13
2023-07-25T14:18:10.904Z,98458.13
2023-07-25T14:20:37.841Z,98459.75
2023-07-25T14:23:04.728Z,98506.16
2023-07-25T14:25:31.650Z,98459.03
2023-07-25T14:27:58.581Z,98482.72
2023-07-25T14:30:25.641Z,98478.06
2023-07-25T14:32:52.520Z,98492.59
2023-07-25T14:35:19.497Z,98488.19
2023-07-25T14:37:55.997Z,98472.09
2023-07-25T14:40:24.680Z,98490.78
2023-07-25T14:42:51.952Z,98455.31
2023-07-25T14:45:19.236Z,98456.59
2023-07-25T14:47:46.317Z,98451.00
2023-07-25T14:50:13.691Z,98475.53
2023-07-25T14:52:40.635Z,98462.63
2023-07-25T14:55:07.952Z,98456.59
2023-07-25T14:57:34.824Z,98453.69
2023-07-25T15:00:01.838Z,98484.91
2023-07-25T15:02:28.962Z,98456.41
2023-07-25T15:04:56.010Z,98473.38
2023-07-25T15:07:22.940Z,98459.13
2023-07-25T15:09:50.220Z,98451.84
2023-07-25T15:12:17.271Z,98436.44
2023-07-25T15:14:44.217Z,98484.50
2023-07-25T15:17:22.586Z,98462.06
2023-07-25T15:20:01.693Z,98466.19
2023-07-25T15:22:29.044Z,98476.41
2023-07-25T15:24:56.575Z,98468.50
2023-07-25T15:27:24.217Z,98462.56
2023-07-25T15:29:51.597Z,98474.94
2023-07-25T15:32:18.656Z,98456.03
2023-07-25T15:34:45.652Z,98472.94
2023-07-25T15:37:13.036Z,98461.91
2023-07-25T15:39:39.985Z,98439.34
2023-07-25T15:42:07.791Z,98496.50
2023-07-25T15:44:34.755Z,98458.22
2023-07-25T15:47:02.327Z,98455.72
2023-07-25T15:49:29.597Z,98451.34
2023-07-25T15:51:57.429Z,98475.03
2023-07-25T15:54:24.351Z,98457.56
2023-07-25T15:56:51.341Z,98461.66
2023-07-25T15:59:18.283Z,98473.88
2023-07-25T16:01:45.606Z,98495.69
2023-07-25T16:04:12.558Z,98485.13
2023-07-25T16:06:39.562Z,98496.63
2023-07-25T16:09:06.444Z,98468.94
2023-07-25T16:11:34.092Z,98486.50
2023-07-25T16:14:01.476Z,98497.75
2023-07-25T16:16:28.494Z,98500.97
2023-07-25T16:18:55.377Z,98482.44
2023-07-25T16:21:22.375Z,98488.19
2023-07-25T16:23:49.401Z,98477.06
2023-07-25T16:26:17.090Z,98487.31
2023-07-25T16:28:44.120Z,98497.34
2023-07-25T16:31:29.041Z,98496.06
2023-07-25T16:33:58.176Z,98515.19
2023-07-25T16:36:25.283Z,98508.69
2023-07-25T16:38:53.703Z,98526.19
2023-07-25T16:41:20.675Z,98486.16
2023-07-25T16:43:47.741Z,98479.22
2023-07-25T16:46:15.358Z,98495.63
2023-07-25T16:48:42.474Z,98502.97
2023-07-25T16:51:09.402Z,98493.19
2023-07-25T16:53:36.487Z,98493.75
2023-07-25T16:56:03.587Z,98499.47
2023-07-25T16:58:30.537Z,98500.56
2023-07-25T17:00:57.492Z,98489.06
2023-07-25T17:03:25.203Z,98505.72
2023-07-25T17:05:52.203Z,98481.50
2023-07-25T17:08:20.407Z,98504.78
2023-07-25T17:10:47.973Z,98506.06
2023-07-25T17:13:15.150Z,98493.38
2023-07-25T17:15:42.883Z,98488.28
2023-07-25T17:18:10.102Z,98505.72
2023-07-25T17:20:36.978Z,98533.34
2023-07-25T17:23:04.458Z,98518.75
2023-07-25T17:25:31.542Z,98530.47
2023-07-25T17:27:58.557Z,98527.84
2023-07-25T17:30:25.499Z,98516.81
2023-07-25T17:32:52.597Z,98504.84
2023-07-25T17:35:31.634Z,98516.13
2023-07-25T17:38:03.233Z,98517.81
2023-07-25T17:40:30.699Z,98514.44
2023-07-25T17:42:57.829Z,98516.19
2023-07-25T17:45:24.808Z,98522.28
2023-07-25T17:47:51.862Z,98509.56
2023-07-25T17:50:18.889Z,98512.50
2023-07-25T17:52:45.789Z,98555.50
2023-07-25T17:55:12.690Z,98529.88
2023-07-25T17:57:39.671Z,98528.63
2023-07-25T18:00:07.305Z,98540.09
2023-07-25T18:02:39.420Z,98523.56
2023-07-25T18:05:06.831Z,98543.84
2023-07-25T18:07:33.842Z,98534.09
2023-07-25T18:10:00.851Z,98526.03
2023-07-25T18:12:27.797Z,98548.03
2023-07-25T18:14:54.925Z,98505.00
2023-07-25T18:17:22.458Z,98552.19
2023-07-25T18:19:49.522Z,98528.25
2023-07-25T18:22:16.645Z,98534.38
2023-07-25T18:24:43.681Z,98509.19
2023-07-25T18:27:10.705Z,98553.41
2023-07-25T18:29:37.759Z,98539.97
2023-07-25T18:32:05.177Z,98559.53
2023-07-25T18:34:32.378Z,98556.09
2023-07-25T18:36:59.313Z,98533.38
2023-07-25T18:39:26.352Z,98529.25
2023-07-25T18:41:53.311Z,98538.06
2023-07-25T18:44:20.357Z,98537.56
2023-07-25T18:46:47.365Z,98545.41
2023-07-25T18:49:14.407Z,98549.06
2023-07-25T18:51:41.420Z,98539.53
2023-07-25T18:54:08.780Z,98536.38
2023-07-25T18:56:35.790Z,98533.19
2023-07-25T18:59:02.780Z,98528.06
2023-07-25T19:01:29.788Z,98521.22
2023-07-25T19:03:58.629Z,98548.81
2023-07-25T19:06:25.952Z,98531.50
2023-07-25T19:08:53.975Z,98527.84
2023-07-25T19:11:20.924Z,98532.47
2023-07-25T19:13:47.888Z,98533.22
2023-07-25T19:16:14.802Z,98544.94
2023-07-25T19:18:41.861Z,98528.28
2023-07-25T19:21:08.795Z,98524.88
2023-07-25T19:23:35.844Z,98518.03
2023-07-25T19:26:02.933Z,98532.44
2023-07-25T19:28:30.031Z,98509.97
2023-07-25T19:30:58.653Z,98526.09
2023-07-25T19:33:26.671Z,98518.75
2023-07-25T19:35:59.117Z,98503.38
2023-07-25T19:38:28.447Z,98503.16
2023-07-25T19:40:55.730Z,98531.94
2023-07-25T19:43:22.812Z,98482.16
2023-07-25T19:45:50.405Z,98519.50
2023-07-25T19:48:20.171Z,98501.16
2023-07-25T19:50:47.298Z,98501.41
2023-07-25T19:53:15.637Z,98505.34
2023-07-25T19:55:42.641Z,98505.34
2023-07-25T19:58:09.754Z,98447.50
2023-07-25T20:00:37.117Z,98510.44
2023-07-25T20:03:04.395Z,98493.34
2023-07-25T20:05:31.467Z,98540.97
2023-07-25T20:07:58.423Z,98529.72
2023-07-25T20:10:25.462Z,98504.34
2023-07-25T20:12:52.948Z,98539.22
2023-07-25T20:15:20.483Z,98525.31
2023-07-25T20:17:48.997Z,98527.75
2023-07-25T20:20:16.251Z,98510.44
2023-07-25T20:22:43.547Z,98516.81
2023-07-25T20:25:10.641Z,98520.94
2023-07-25T20:27:38.007Z,98525.31
2023-07-25T20:30:06.477Z,98512.63
2023-07-25T20:32:33.753Z,98522.63
2023-07-25T20:35:01.062Z,98542.88
2023-07-25T20:37:28.250Z,98538.44
2023-07-25T20:39:55.174Z,98524.81
2023-07-25T20:42:22.586Z,98537.97
2023-07-25T20:44:50.533Z,98530.91
2023-07-25T20:47:17.475Z,98529.91
2023-07-25T20:49:44.408Z,98514.81
2023-07-25T20:52:11.493Z,98517.25
2023-07-25T20:54:38.420Z,98516.22
2023-07-25T20:57:05.702Z,98515.50
2023-07-25T20:59:32.583Z,98508.91
2023-07-25T21:01:59.514Z,98501.88
2023-07-25T21:04:28.723Z,98523.81
2023-07-25T21:06:56.301Z,98528.59
2023-07-25T21:09:23.208Z,98518.66
2023-07-25T21:11:50.150Z,98543.25
2023-07-25T21:14:17.045Z,98548.63
2023-07-25T21:16:44.012Z,98519.13
2023-07-25T21:19:10.951Z,98522.06
2023-07-25T21:21:37.913Z,98512.06
2023-07-25T21:24:05.426Z,98533.03
2023-07-25T21:26:32.631Z,98518.88
2023-07-25T21:28:59.896Z,98511.25
2023-07-25T21:31:26.944Z,98513.50
2023-07-25T21:33:54.041Z,98510.78
2023-07-25T21:36:21.062Z,98508.63
2023-07-25T21:38:47.950Z,98482.25
2023-07-25T21:41:14.918Z,98526.88
2023-07-25T21:43:42.265Z,98498.06
2023-07-25T21:46:09.618Z,98533.44
2023-07-25T21:48:36.573Z,98529.00
2023-07-25T21:51:03.669Z,98508.31
2023-07-25T21:53:31.295Z,98538.25
2023-07-25T21:55:59.240Z,98519.00
2023-07-25T21:58:28.222Z,98515.34
2023-07-25T22:00:59.377Z,98516.31
2023-07-25T22:03:27.461Z,98502.47
2023-07-25T22:05:55.168Z,98518.94
2023-07-25T22:08:22.184Z,98517.53
2023-07-25T22:10:49.179Z,98511.16
2023-07-25T22:13:16.327Z,98538.00
2023-07-25T22:15:43.438Z,98538.94
2023-07-25T22:18:10.576Z,98530.91
2023-07-25T22:20:50.624Z,98528.44
2023-07-25T22:23:19.102Z,98527.00
2023-07-25T22:25:46.019Z,98545.97
2023-07-25T22:28:13.086Z,98500.19
2023-07-25T22:30:40.070Z,98500.94
2023-07-25T22:33:07.166Z,98512.38
2023-07-25T22:35:35.029Z,98511.16
2023-07-25T22:38:03.698Z,98506.81
2023-07-25T22:40:30.894Z,98493.63
2023-07-25T22:42:58.089Z,98494.88
2023-07-25T22:45:26.825Z,98500.94
2023-07-25T22:47:54.504Z,98488.56
2023-07-25T22:50:21.548Z,98493.91
2023-07-25T22:52:48.815Z,98472.16
2023-07-25T22:55:17.925Z,98484.13
2023-07-25T22:57:45.438Z,98508.19
2023-07-25T23:00:12.867Z,98487.28
2023-07-25T23:02:40.080Z,98488.03
2023-07-25T23:05:07.566Z,98498.44
2023-07-25T23:07:35.352Z,98497.94
2023-07-25T23:10:02.820Z,98493.78
2023-07-25T23:12:30.199Z,98502.34
2023-07-25T23:14:57.307Z,98493.75
2023-07-25T23:17:24.532Z,98523.41
2023-07-25T23:19:51.649Z,98503.66
2023-07-25T23:22:18.670Z,98489.25
2023-07-25T23:24:45.745Z,98506.59
2023-07-25T23:27:12.682Z,98494.63
2023-07-25T23:29:39.586Z,98502.63
2023-07-25T23:32:07.277Z,98520.84
2023-07-25T23:34:48.489Z,98506.94
2023-07-25T23:37:16.543Z,98509.28
2023-07-25T23:39:43.877Z,98504.94
2023-07-25T23:42:10.878Z,98534.03
2023-07-25T23:44:37.896Z,98515.53
2023-07-25T23:47:05.343Z,98495.53
2023-07-25T23:49:34.477Z,98509.66
2023-07-25T23:52:01.747Z,98487.47
2023-07-25T23:54:28.724Z,98492.53
2023-07-25T23:56:55.702Z,98506.66
2023-07-25T23:59:22.649Z,98506.66
